N`giva, Ondjiva Pereira Airport (FNGI)

NameOndjiva Pereira Airport
CityN`giva
CountryAngola
ICAOFNGI
IATAVPE
Altitude1087 m
CoordinatesGoogle Map
Live Air TrafficLiveATC.net
METARFNGI 141400Z 10005KT 9999 SCT020 BKN080 24/19 Q1017
2019-10-14 14:00:00 Wind: East (100°) 2.57 m/s - Visibility: > 10000 m - Temperature: 24 °C - Dew point: 19 °C - Humidity: 73.7% - Pressure: 1017 hPa
Statistics

The table below shows the detailed information of all flights to/from N`giva, Ondjiva Pereira Airport (FNGI).